sensor_id;sensor_type;location;lat;lon;timestamp;pressure;altitude;pressure_sealevel;temperature;humidity
38718;BME280;24468;52.128;9.278;2023-03-14T00:02:18;98155.06;;;12.80;100.00
38718;BME280;24468;52.128;9.278;2023-03-14T00:04:44;98148.97;;;12.78;100.00
38718;BME280;24468;52.128;9.278;2023-03-14T00:07:11;98145.53;;;12.76;100.00
38718;BME280;24468;52.128;9.278;2023-03-14T00:09:37;98145.50;;;12.66;100.00
38718;BME280;24468;52.128;9.278;2023-03-14T00:12:03;98150.66;;;12.79;100.00
38718;BME280;24468;52.128;9.278;2023-03-14T00:14:29;98154.22;;;12.80;100.00
38718;BME280;24468;52.128;9.278;2023-03-14T00:16:56;98161.47;;;12.79;100.00
38718;BME280;24468;52.128;9.278;2023-03-14T00:19:21;98141.53;;;12.80;100.00
38718;BME280;24468;52.128;9.278;2023-03-14T00:21:47;98149.50;;;12.62;100.00
38718;BME280;24468;52.128;9.278;2023-03-14T00:24:12;98162.91;;;12.74;100.00
38718;BME280;24468;52.128;9.278;2023-03-14T00:26:38;98177.25;;;12.55;100.00
38718;BME280;24468;52.128;9.278;2023-03-14T00:29:03;98185.91;;;12.49;100.00
38718;BME280;24468;52.128;9.278;2023-03-14T00:31:29;98167.59;;;12.62;100.00
38718;BME280;24468;52.128;9.278;2023-03-14T00:33:55;98178.09;;;12.55;100.00
38718;BME280;24468;52.128;9.278;2023-03-14T00:36:21;98178.25;;;12.54;100.00
38718;BME280;24468;52.128;9.278;2023-03-14T00:38:49;98181.22;;;12.51;100.00
38718;BME280;24468;52.128;9.278;2023-03-14T00:41:21;98180.28;;;12.31;100.00
38718;BME280;24468;52.128;9.278;2023-03-14T00:43:48;98176.06;;;12.38;100.00
38718;BME280;24468;52.128;9.278;2023-03-14T00:46:13;98172.56;;;12.57;100.00
38718;BME280;24468;52.128;9.278;2023-03-14T00:48:39;98192.28;;;12.48;100.00
38718;BME280;24468;52.128;9.278;2023-03-14T00:51:07;98183.03;;;12.40;100.00
38718;BME280;24468;52.128;9.278;2023-03-14T00:53:38;98177.19;;;12.35;100.00
38718;BME280;24468;52.128;9.278;2023-03-14T00:56:07;98158.25;;;12.35;100.00
38718;BME280;24468;52.128;9.278;2023-03-14T00:58:33;98163.38;;;12.38;100.00
38718;BME280;24468;52.128;9.278;2023-03-14T01:00:58;98156.84;;;12.41;100.00
38718;BME280;24468;52.128;9.278;2023-03-14T01:03:24;98139.50;;;12.43;100.00
38718;BME280;24468;52.128;9.278;2023-03-14T01:05:50;98125.56;;;12.58;100.00
38718;BME280;24468;52.128;9.278;2023-03-14T01:08:16;98129.94;;;12.39;100.00
38718;BME280;24468;52.128;9.278;2023-03-14T01:10:42;98123.59;;;12.60;100.00
38718;BME280;24468;52.128;9.278;2023-03-14T01:13:09;98137.53;;;12.65;100.00
38718;BME280;24468;52.128;9.278;2023-03-14T01:15:37;98143.94;;;12.54;100.00
38718;BME280;24468;52.128;9.278;2023-03-14T01:18:03;98141.19;;;12.44;100.00
38718;BME280;24468;52.128;9.278;2023-03-14T01:20:29;98134.09;;;12.53;100.00
38718;BME280;24468;52.128;9.278;2023-03-14T01:22:54;98133.41;;;12.51;100.00
38718;BME280;24468;52.128;9.278;2023-03-14T01:25:20;98157.69;;;12.41;100.00
38718;BME280;24468;52.128;9.278;2023-03-14T01:27:45;98162.00;;;12.54;100.00
38718;BME280;24468;52.128;9.278;2023-03-14T01:30:12;98156.16;;;12.49;100.00
38718;BME280;24468;52.128;9.278;2023-03-14T01:32:38;98154.22;;;12.70;100.00
38718;BME280;24468;52.128;9.278;2023-03-14T01:35:05;98150.66;;;12.79;100.00
38718;BME280;24468;52.128;9.278;2023-03-14T01:37:30;98152.06;;;12.74;100.00
38718;BME280;24468;52.128;9.278;2023-03-14T01:39:56;98141.25;;;12.83;100.00
38718;BME280;24468;52.128;9.278;2023-03-14T01:42:21;98123.47;;;12.81;100.00
38718;BME280;24468;52.128;9.278;2023-03-14T01:44:58;98092.84;;;12.80;100.00
38718;BME280;24468;52.128;9.278;2023-03-14T01:47:24;98081.72;;;12.83;100.00
38718;BME280;24468;52.128;9.278;2023-03-14T01:49:59;98095.41;;;13.01;100.00
38718;BME280;24468;52.128;9.278;2023-03-14T01:52:36;98103.09;;;12.86;100.00
38718;BME280;24468;52.128;9.278;2023-03-14T01:55:17;98097.69;;;12.86;100.00
38718;BME280;24468;52.128;9.278;2023-03-14T01:57:48;98099.13;;;12.81;100.00
38718;BME280;24468;52.128;9.278;2023-03-14T02:00:19;98087.88;;;12.76;100.00
38718;BME280;24468;52.128;9.278;2023-03-14T02:02:53;98107.22;;;12.90;100.00
38718;BME280;24468;52.128;9.278;2023-03-14T02:05:23;98105.38;;;12.91;100.00
38718;BME280;24468;52.128;9.278;2023-03-14T02:07:54;98103.50;;;12.72;100.00
38718;BME280;24468;52.128;9.278;2023-03-14T02:10:24;98106.75;;;12.46;100.00
38718;BME280;24468;52.128;9.278;2023-03-14T02:12:50;98122.44;;;12.62;100.00
38718;BME280;24468;52.128;9.278;2023-03-14T02:15:17;98113.78;;;12.59;100.00
38718;BME280;24468;52.128;9.278;2023-03-14T02:17:43;98105.31;;;12.33;100.00
38718;BME280;24468;52.128;9.278;2023-03-14T02:20:28;98101.63;;;12.53;100.00
38718;BME280;24468;52.128;9.278;2023-03-14T02:22:57;98094.53;;;12.52;100.00
38718;BME280;24468;52.128;9.278;2023-03-14T02:28:16;98083.28;;;12.37;100.00
38718;BME280;24468;52.128;9.278;2023-03-14T02:30:43;98085.38;;;12.24;100.00
38718;BME280;24468;52.128;9.278;2023-03-14T02:33:15;98072.03;;;12.32;100.00
38718;BME280;24468;52.128;9.278;2023-03-14T02:36:12;98063.75;;;12.34;100.00
38718;BME280;24468;52.128;9.278;2023-03-14T02:41:07;98048.78;;;12.20;100.00
38718;BME280;24468;52.128;9.278;2023-03-14T02:43:33;98046.09;;;12.10;100.00
38718;BME280;24468;52.128;9.278;2023-03-14T02:46:00;98061.72;;;12.07;100.00
38718;BME280;24468;52.128;9.278;2023-03-14T02:48:33;98061.16;;;12.13;100.00
38718;BME280;24468;52.128;9.278;2023-03-14T02:51:01;98055.31;;;12.08;100.00
38718;BME280;24468;52.128;9.278;2023-03-14T02:53:30;98061.13;;;11.93;100.00
38718;BME280;24468;52.128;9.278;2023-03-14T02:55:57;98062.09;;;11.92;100.00
38718;BME280;24468;52.128;9.278;2023-03-14T02:58:23;98066.97;;;11.98;100.00
38718;BME280;24468;52.128;9.278;2023-03-14T03:00:48;98043.06;;;11.94;100.00
38718;BME280;24468;52.128;9.278;2023-03-14T03:03:14;98056.16;;;11.98;100.00
38718;BME280;24468;52.128;9.278;2023-03-14T03:05:40;98056.59;;;12.13;100.00
38718;BME280;24468;52.128;9.278;2023-03-14T03:08:06;98040.63;;;12.00;100.00
38718;BME280;24468;52.128;9.278;2023-03-14T03:10:32;98058.03;;;12.08;100.00
38718;BME280;24468;52.128;9.278;2023-03-14T03:12:57;98057.53;;;11.93;100.00
38718;BME280;24468;52.128;9.278;2023-03-14T03:15:23;98058.56;;;11.71;100.00
38718;BME280;24468;52.128;9.278;2023-03-14T03:17:49;98074.94;;;11.48;100.00
38718;BME280;24468;52.128;9.278;2023-03-14T03:20:15;98112.78;;;11.27;100.00
38718;BME280;24468;52.128;9.278;2023-03-14T03:22:40;98094.97;;;10.83;100.00
38718;BME280;24468;52.128;9.278;2023-03-14T03:25:07;98131.66;;;10.08;100.00
38718;BME280;24468;52.128;9.278;2023-03-14T03:27:36;98126.19;;;9.98;100.00
38718;BME280;24468;52.128;9.278;2023-03-14T03:30:04;98114.31;;;10.01;100.00
38718;BME280;24468;52.128;9.278;2023-03-14T03:32:31;98116.00;;;10.02;100.00
38718;BME280;24468;52.128;9.278;2023-03-14T03:34:56;98113.19;;;9.92;100.00
38718;BME280;24468;52.128;9.278;2023-03-14T03:37:22;98109.66;;;9.80;100.00
38718;BME280;24468;52.128;9.278;2023-03-14T03:39:50;98101.78;;;10.11;100.00
38718;BME280;24468;52.128;9.278;2023-03-14T03:42:16;98094.47;;;9.91;100.00
38718;BME280;24468;52.128;9.278;2023-03-14T03:44:42;98099.00;;;9.90;100.00
38718;BME280;24468;52.128;9.278;2023-03-14T03:47:07;98099.00;;;10.01;100.00
38718;BME280;24468;52.128;9.278;2023-03-14T03:49:33;98100.06;;;10.10;100.00
38718;BME280;24468;52.128;9.278;2023-03-14T03:51:59;98110.38;;;9.94;100.00
38718;BME280;24468;52.128;9.278;2023-03-14T03:54:25;98108.66;;;9.70;100.00
38718;BME280;24468;52.128;9.278;2023-03-14T03:56:51;98098.63;;;9.84;100.00
38718;BME280;24468;52.128;9.278;2023-03-14T03:59:16;98096.19;;;9.80;100.00
38718;BME280;24468;52.128;9.278;2023-03-14T04:01:42;98096.06;;;9.82;100.00
38718;BME280;24468;52.128;9.278;2023-03-14T04:04:08;98090.22;;;9.66;100.00
38718;BME280;24468;52.128;9.278;2023-03-14T04:06:34;98099.00;;;9.45;100.00
38718;BME280;24468;52.128;9.278;2023-03-14T04:08:59;98106.72;;;9.50;100.00
38718;BME280;24468;52.128;9.278;2023-03-14T04:11:25;98107.47;;;9.63;100.00
38718;BME280;24468;52.128;9.278;2023-03-14T04:13:50;98098.63;;;9.50;100.00
38718;BME280;24468;52.128;9.278;2023-03-14T04:16:23;98109.16;;;9.64;100.00
38718;BME280;24468;52.128;9.278;2023-03-14T04:18:49;98117.09;;;9.43;100.00
38718;BME280;24468;52.128;9.278;2023-03-14T04:21:15;98105.38;;;9.55;100.00
38718;BME280;24468;52.128;9.278;2023-03-14T04:23:41;98105.22;;;9.46;100.00
38718;BME280;24468;52.128;9.278;2023-03-14T04:26:06;98099.94;;;9.22;100.00
38718;BME280;24468;52.128;9.278;2023-03-14T04:28:32;98099.72;;;9.25;100.00
38718;BME280;24468;52.128;9.278;2023-03-14T04:30:58;98098.13;;;9.45;100.00
38718;BME280;24468;52.128;9.278;2023-03-14T04:33:23;98096.31;;;9.56;100.00
38718;BME280;24468;52.128;9.278;2023-03-14T04:35:54;98081.50;;;9.40;100.00
38718;BME280;24468;52.128;9.278;2023-03-14T04:38:19;98075.75;;;9.44;100.00
38718;BME280;24468;52.128;9.278;2023-03-14T04:40:45;98081.84;;;9.24;100.00
38718;BME280;24468;52.128;9.278;2023-03-14T04:43:11;98076.84;;;9.42;100.00
38718;BME280;24468;52.128;9.278;2023-03-14T04:45:40;98069.28;;;9.58;100.00
38718;BME280;24468;52.128;9.278;2023-03-14T04:48:06;98076.50;;;9.46;100.00
38718;BME280;24468;52.128;9.278;2023-03-14T04:50:32;98061.81;;;9.62;100.00
38718;BME280;24468;52.128;9.278;2023-03-14T04:52:57;98061.69;;;9.52;100.00
38718;BME280;24468;52.128;9.278;2023-03-14T04:55:23;98056.31;;;9.52;100.00
38718;BME280;24468;52.128;9.278;2023-03-14T04:57:49;98059.13;;;9.50;100.00
38718;BME280;24468;52.128;9.278;2023-03-14T05:00:14;98052.53;;;9.66;100.00
38718;BME280;24468;52.128;9.278;2023-03-14T05:02:43;98042.72;;;9.53;100.00
38718;BME280;24468;52.128;9.278;2023-03-14T05:05:09;98041.97;;;9.40;100.00
38718;BME280;24468;52.128;9.278;2023-03-14T05:07:34;98041.97;;;9.40;100.00
38718;BME280;24468;52.128;9.278;2023-03-14T05:10:00;98035.63;;;9.30;100.00
38718;BME280;24468;52.128;9.278;2023-03-14T05:12:25;98041.13;;;9.28;100.00
38718;BME280;24468;52.128;9.278;2023-03-14T05:14:51;98051.41;;;9.34;100.00
38718;BME280;24468;52.128;9.278;2023-03-14T05:17:16;98046.50;;;9.28;100.00
38718;BME280;24468;52.128;9.278;2023-03-14T05:19:44;98058.00;;;9.30;100.00
38718;BME280;24468;52.128;9.278;2023-03-14T05:22:10;98045.06;;;9.35;100.00
38718;BME280;24468;52.128;9.278;2023-03-14T05:24:36;98043.22;;;9.47;100.00
38718;BME280;24468;52.128;9.278;2023-03-14T05:27:03;98029.75;;;9.36;100.00
38718;BME280;24468;52.128;9.278;2023-03-14T05:29:29;98040.88;;;9.43;100.00
38718;BME280;24468;52.128;9.278;2023-03-14T05:31:54;98033.91;;;9.51;100.00
38718;BME280;24468;52.128;9.278;2023-03-14T05:34:20;98047.00;;;9.45;100.00
38718;BME280;24468;52.128;9.278;2023-03-14T05:36:45;98044.16;;;9.24;100.00
38718;BME280;24468;52.128;9.278;2023-03-14T05:39:11;98048.69;;;9.34;100.00
38718;BME280;24468;52.128;9.278;2023-03-14T05:41:36;98047.50;;;9.50;100.00
38718;BME280;24468;52.128;9.278;2023-03-14T05:44:02;98051.66;;;9.31;100.00
38718;BME280;24468;52.128;9.278;2023-03-14T05:46:27;98061.81;;;9.39;100.00
38718;BME280;24468;52.128;9.278;2023-03-14T05:48:54;98047.13;;;9.43;100.00
38718;BME280;24468;52.128;9.278;2023-03-14T05:51:20;98048.69;;;9.57;100.00
38718;BME280;24468;52.128;9.278;2023-03-14T05:53:45;98044.28;;;9.67;100.00
38718;BME280;24468;52.128;9.278;2023-03-14T05:56:10;98045.88;;;9.70;100.00
38718;BME280;24468;52.128;9.278;2023-03-14T05:58:36;98034.13;;;9.60;100.00
38718;BME280;24468;52.128;9.278;2023-03-14T06:01:04;98041.00;;;9.75;100.00
38718;BME280;24468;52.128;9.278;2023-03-14T06:03:31;98029.13;;;9.66;100.00
38718;BME280;24468;52.128;9.278;2023-03-14T06:05:57;98027.28;;;9.78;100.00
38718;BME280;24468;52.128;9.278;2023-03-14T06:08:22;98018.72;;;9.73;100.00
38718;BME280;24468;52.128;9.278;2023-03-14T06:10:48;98031.31;;;9.84;100.00
38718;BME280;24468;52.128;9.278;2023-03-14T06:13:13;98030.09;;;9.65;100.00
38718;BME280;24468;52.128;9.278;2023-03-14T06:15:41;98012.97;;;9.77;100.00
38718;BME280;24468;52.128;9.278;2023-03-14T06:18:06;98001.13;;;9.69;100.00
38718;BME280;24468;52.128;9.278;2023-03-14T06:20:32;98027.63;;;9.73;100.00
38718;BME280;24468;52.128;9.278;2023-03-14T06:22:58;97990.69;;;9.75;100.00
38718;BME280;24468;52.128;9.278;2023-03-14T06:25:24;98031.44;;;9.82;100.00
38718;BME280;24468;52.128;9.278;2023-03-14T06:27:50;98011.59;;;9.83;100.00
38718;BME280;24468;52.128;9.278;2023-03-14T06:30:16;98001.84;;;9.71;100.00
38718;BME280;24468;52.128;9.278;2023-03-14T06:32:42;98015.56;;;9.56;100.00
38718;BME280;24468;52.128;9.278;2023-03-14T06:35:08;98030.84;;;9.67;100.00
38718;BME280;24468;52.128;9.278;2023-03-14T06:37:33;98031.94;;;9.76;100.00
38718;BME280;24468;52.128;9.278;2023-03-14T06:39:59;98049.44;;;9.70;100.00
38718;BME280;24468;52.128;9.278;2023-03-14T06:42:25;98042.09;;;9.72;100.00
38718;BME280;24468;52.128;9.278;2023-03-14T06:44:50;98051.88;;;9.51;100.00
38718;BME280;24468;52.128;9.278;2023-03-14T06:47:16;98041.00;;;9.64;100.00
38718;BME280;24468;52.128;9.278;2023-03-14T06:49:41;98039.53;;;9.37;100.00
38718;BME280;24468;52.128;9.278;2023-03-14T06:52:07;98043.19;;;9.70;100.00
38718;BME280;24468;52.128;9.278;2023-03-14T06:54:32;98056.53;;;9.38;100.00
38718;BME280;24468;52.128;9.278;2023-03-14T06:56:58;98055.06;;;9.67;100.00
38718;BME280;24468;52.128;9.278;2023-03-14T06:59:24;98045.63;;;9.84;100.00
38718;BME280;24468;52.128;9.278;2023-03-14T07:01:49;98053.22;;;9.56;100.00
38718;BME280;24468;52.128;9.278;2023-03-14T07:04:16;98062.06;;;9.47;100.00
38718;BME280;24468;52.128;9.278;2023-03-14T07:06:42;98054.22;;;9.55;100.00
38718;BME280;24468;52.128;9.278;2023-03-14T07:09:12;98066.69;;;9.56;100.00
38718;BME280;24468;52.128;9.278;2023-03-14T07:11:37;98058.25;;;9.72;100.00
38718;BME280;24468;52.128;9.278;2023-03-14T07:14:03;98067.91;;;9.75;100.00
38718;BME280;24468;52.128;9.278;2023-03-14T07:16:28;98058.75;;;9.66;100.00
38718;BME280;24468;52.128;9.278;2023-03-14T07:18:57;98073.41;;;9.62;100.00
38718;BME280;24468;52.128;9.278;2023-03-14T07:21:22;98069.53;;;9.44;100.00
38718;BME280;24468;52.128;9.278;2023-03-14T07:23:48;98078.69;;;9.30;100.00
38718;BME280;24468;52.128;9.278;2023-03-14T07:26:14;98073.78;;;9.35;100.00
38718;BME280;24468;52.128;9.278;2023-03-14T07:28:39;98076.59;;;9.45;100.00
38718;BME280;24468;52.128;9.278;2023-03-14T07:31:05;98066.09;;;9.42;100.00
38718;BME280;24468;52.128;9.278;2023-03-14T07:33:31;98072.56;;;9.28;100.00
38718;BME280;24468;52.128;9.278;2023-03-14T07:35:56;98057.78;;;9.45;100.00
38718;BME280;24468;52.128;9.278;2023-03-14T07:38:22;98070.81;;;9.27;100.00
38718;BME280;24468;52.128;9.278;2023-03-14T07:40:48;98062.66;;;9.40;100.00
38718;BME280;24468;52.128;9.278;2023-03-14T07:43:13;98065.94;;;9.43;100.00
38718;BME280;24468;52.128;9.278;2023-03-14T07:45:39;98059.47;;;9.57;100.00
38718;BME280;24468;52.128;9.278;2023-03-14T07:48:04;98055.81;;;9.69;100.00
38718;BME280;24468;52.128;9.278;2023-03-14T07:50:30;98065.59;;;9.70;100.00
38718;BME280;24468;52.128;9.278;2023-03-14T07:52:55;98068.41;;;9.69;100.00
38718;BME280;24468;52.128;9.278;2023-03-14T07:55:21;98059.97;;;9.62;100.00
38718;BME280;24468;52.128;9.278;2023-03-14T07:57:47;98066.09;;;9.53;100.00
38718;BME280;24468;52.128;9.278;2023-03-14T08:00:13;98053.97;;;9.47;100.00
38718;BME280;24468;52.128;9.278;2023-03-14T08:02:40;98069.03;;;9.72;100.00
38718;BME280;24468;52.128;9.278;2023-03-14T08:05:07;98063.59;;;9.95;100.00
38718;BME280;24468;52.128;9.278;2023-03-14T08:07:32;98065.69;;;10.02;100.00
38718;BME280;24468;52.128;9.278;2023-03-14T08:09:58;98070.56;;;10.09;100.00
38718;BME280;24468;52.128;9.278;2023-03-14T08:12:23;98057.09;;;10.52;100.00
38718;BME280;24468;52.128;9.278;2023-03-14T08:14:49;98052.44;;;10.54;100.00
38718;BME280;24468;52.128;9.278;2023-03-14T08:17:14;98058.06;;;10.62;100.00
38718;BME280;24468;52.128;9.278;2023-03-14T08:19:41;98056.69;;;10.68;100.00
38718;BME280;24468;52.128;9.278;2023-03-14T08:22:07;98053.06;;;10.79;100.00
38718;BME280;24468;52.128;9.278;2023-03-14T08:24:33;98046.91;;;10.56;100.00
38718;BME280;24468;52.128;9.278;2023-03-14T08:26:59;98055.22;;;10.64;100.00
38718;BME280;24468;52.128;9.278;2023-03-14T08:29:25;98045.91;;;10.89;100.00
38718;BME280;24468;52.128;9.278;2023-03-14T08:31:50;98052.56;;;11.06;100.00
38718;BME280;24468;52.128;9.278;2023-03-14T08:34:16;98042.09;;;11.12;100.00
38718;BME280;24468;52.128;9.278;2023-03-14T08:36:42;98042.38;;;11.40;100.00
38718;BME280;24468;52.128;9.278;2023-03-14T08:39:08;98036.63;;;11.03;100.00
38718;BME280;24468;52.128;9.278;2023-03-14T08:41:35;98041.88;;;11.04;100.00
38718;BME280;24468;52.128;9.278;2023-03-14T08:44:08;98045.00;;;11.00;100.00
38718;BME280;24468;52.128;9.278;2023-03-14T08:46:34;98042.16;;;11.22;100.00
38718;BME280;24468;52.128;9.278;2023-03-14T08:49:00;98039.13;;;11.16;100.00
38718;BME280;24468;52.128;9.278;2023-03-14T08:51:25;98044.50;;;11.37;100.00
38718;BME280;24468;52.128;9.278;2023-03-14T08:53:51;98030.41;;;11.64;100.00
38718;BME280;24468;52.128;9.278;2023-03-14T08:56:17;98031.94;;;11.56;100.00
38718;BME280;24468;52.128;9.278;2023-03-14T08:58:43;98032.81;;;11.88;100.00
38718;BME280;24468;52.128;9.278;2023-03-14T09:01:10;98027.19;;;11.39;100.00
38718;BME280;24468;52.128;9.278;2023-03-14T09:03:36;98036.22;;;11.59;100.00
38718;BME280;24468;52.128;9.278;2023-03-14T09:06:07;98041.84;;;11.77;100.00
38718;BME280;24468;52.128;9.278;2023-03-14T09:08:33;98028.44;;;11.66;100.00
38718;BME280;24468;52.128;9.278;2023-03-14T09:11:00;98038.00;;;11.79;100.00
38718;BME280;24468;52.128;9.278;2023-03-14T09:13:25;98055.50;;;11.85;100.00
38718;BME280;24468;52.128;9.278;2023-03-14T09:15:52;98058.56;;;11.71;100.00
38718;BME280;24468;52.128;9.278;2023-03-14T09:18:18;98056.75;;;11.81;100.00
38718;BME280;24468;52.128;9.278;2023-03-14T09:20:44;98048.47;;;11.63;100.00
38718;BME280;24468;52.128;9.278;2023-03-14T09:23:09;98053.34;;;11.79;100.00
38718;BME280;24468;52.128;9.278;2023-03-14T09:25:35;98061.41;;;11.90;100.00
38718;BME280;24468;52.128;9.278;2023-03-14T09:28:00;98054.78;;;11.83;100.00
38718;BME280;24468;52.128;9.278;2023-03-14T09:30:26;98053.28;;;11.90;100.00
38718;BME280;24468;52.128;9.278;2023-03-14T09:32:51;98055.16;;;12.09;100.00
38718;BME280;24468;52.128;9.278;2023-03-14T09:35:17;98070.47;;;11.89;100.00
38718;BME280;24468;52.128;9.278;2023-03-14T09:37:42;98064.97;;;12.00;100.00
38718;BME280;24468;52.128;9.278;2023-03-14T09:40:14;98057.00;;;12.09;100.00
38718;BME280;24468;52.128;9.278;2023-03-14T09:42:40;98062.75;;;12.15;100.00
38718;BME280;24468;52.128;9.278;2023-03-14T09:45:13;98060.78;;;11.87;100.00
38718;BME280;24468;52.128;9.278;2023-03-14T09:47:43;98055.09;;;11.90;100.00
38718;BME280;24468;52.128;9.278;2023-03-14T09:50:19;98050.63;;;12.19;100.00
38718;BME280;24468;52.128;9.278;2023-03-14T09:53:06;98062.28;;;12.10;100.00
38718;BME280;24468;52.128;9.278;2023-03-14T09:55:32;98052.66;;;12.27;100.00
38718;BME280;24468;52.128;9.278;2023-03-14T09:58:02;98046.03;;;11.91;100.00
38718;BME280;24468;52.128;9.278;2023-03-14T10:00:30;98085.91;;;11.77;100.00
38718;BME280;24468;52.128;9.278;2023-03-14T10:05:31;98062.56;;;12.07;100.00
38718;BME280;24468;52.128;9.278;2023-03-14T10:07:56;98061.88;;;11.84;100.00
38718;BME280;24468;52.128;9.278;2023-03-14T10:10:25;98056.75;;;11.81;100.00
38718;BME280;24468;52.128;9.278;2023-03-14T10:15:48;98055.47;;;12.26;100.00
38718;BME280;24468;52.128;9.278;2023-03-14T10:18:16;98059.31;;;12.23;100.00
38718;BME280;24468;52.128;9.278;2023-03-14T10:20:45;98056.59;;;12.13;100.00
38718;BME280;24468;52.128;9.278;2023-03-14T10:25:40;98042.09;;;12.14;100.00
38718;BME280;24468;52.128;9.278;2023-03-14T10:28:28;98051.53;;;12.49;100.00
38718;BME280;24468;52.128;9.278;2023-03-14T10:30:55;98046.00;;;12.60;100.00
38718;BME280;24468;52.128;9.278;2023-03-14T10:33:25;98054.03;;;12.12;100.00
38718;BME280;24468;52.128;9.278;2023-03-14T10:36:04;98055.56;;;11.95;100.00
38718;BME280;24468;52.128;9.278;2023-03-14T10:38:34;98056.72;;;12.12;100.00
38718;BME280;24468;52.128;9.278;2023-03-14T10:41:01;98054.84;;;11.93;100.00
38718;BME280;24468;52.128;9.278;2023-03-14T10:43:34;98049.91;;;12.17;100.00
38718;BME280;24468;52.128;9.278;2023-03-14T10:46:13;98058.78;;;12.78;100.00
38718;BME280;24468;52.128;9.278;2023-03-14T10:48:39;98056.97;;;12.78;100.00
38718;BME280;24468;52.128;9.278;2023-03-14T10:53:58;98063.22;;;12.50;100.00
38718;BME280;24468;52.128;9.278;2023-03-14T10:56:25;98060.72;;;12.08;100.00
38718;BME280;24468;52.128;9.278;2023-03-14T10:59:01;98072.84;;;12.23;100.00
38718;BME280;24468;52.128;9.278;2023-03-14T11:01:48;98071.66;;;11.96;100.00
38718;BME280;24468;52.128;9.278;2023-03-14T11:04:55;98092.84;;;12.01;100.00
38718;BME280;24468;52.128;9.278;2023-03-14T11:07:41;98095.97;;;11.45;100.00
38718;BME280;24468;52.128;9.278;2023-03-14T11:16:14;98214.38;;;8.66;100.00
38718;BME280;24468;52.128;9.278;2023-03-14T11:19:00;98254.25;;;7.85;100.00
38718;BME280;24468;52.128;9.278;2023-03-14T11:21:59;98253.66;;;7.54;100.00
38718;BME280;24468;52.128;9.278;2023-03-14T11:27:26;98291.44;;;7.11;100.00
38718;BME280;24468;52.128;9.278;2023-03-14T11:29:55;98308.66;;;6.94;100.00
38718;BME280;24468;52.128;9.278;2023-03-14T11:32:56;98325.75;;;6.64;100.00
38718;BME280;24468;52.128;9.278;2023-03-14T11:35:43;98325.44;;;6.55;100.00
38718;BME280;24468;52.128;9.278;2023-03-14T11:38:30;98334.16;;;6.44;100.00
38718;BME280;24468;52.128;9.278;2023-03-14T11:40:59;98410.53;;;5.76;100.00
38718;BME280;24468;52.128;9.278;2023-03-14T11:43:41;98393.06;;;5.55;100.00
38718;BME280;24468;52.128;9.278;2023-03-14T11:49:32;98441.13;;;5.09;100.00
38718;BME280;24468;52.128;9.278;2023-03-14T11:52:39;98449.59;;;4.68;100.00
38718;BME280;24468;52.128;9.278;2023-03-14T11:55:53;98469.72;;;4.75;100.00
38718;BME280;24468;52.128;9.278;2023-03-14T11:58:27;98492.31;;;4.35;100.00
38718;BME280;24468;52.128;9.278;2023-03-14T12:00:55;98513.81;;;3.97;100.00
38718;BME280;24468;52.128;9.278;2023-03-14T12:03:54;98520.31;;;3.91;100.00
38718;BME280;24468;52.128;9.278;2023-03-14T12:06:31;98555.84;;;3.92;100.00
38718;BME280;24468;52.128;9.278;2023-03-14T12:09:02;98562.25;;;3.51;100.00
38718;BME280;24468;52.128;9.278;2023-03-14T12:11:50;98583.28;;;3.58;100.00
38718;BME280;24468;52.128;9.278;2023-03-14T12:14:25;98576.38;;;3.53;100.00
38718;BME280;24468;52.128;9.278;2023-03-14T12:17:27;98573.31;;;3.23;100.00
38718;BME280;24468;52.128;9.278;2023-03-14T12:22:53;98606.31;;;3.21;100.00
38718;BME280;24468;52.128;9.278;2023-03-14T12:25:26;98644.53;;;3.40;100.00
38718;BME280;24468;52.128;9.278;2023-03-14T12:30:41;98605.28;;;3.63;100.00
38718;BME280;24468;52.128;9.278;2023-03-14T12:43:45;98670.19;;;3.99;100.00
38718;BME280;24468;52.128;9.278;2023-03-14T12:49:09;98697.53;;;4.23;100.00
38718;BME280;24468;52.128;9.278;2023-03-14T12:51:40;98723.16;;;4.09;100.00
38718;BME280;24468;52.128;9.278;2023-03-14T12:57:10;98723.28;;;4.24;100.00
38718;BME280;24468;52.128;9.278;2023-03-14T13:00:00;98719.75;;;4.24;100.00
38718;BME280;24468;52.128;9.278;2023-03-14T13:02:41;98728.91;;;4.37;100.00
38718;BME280;24468;52.128;9.278;2023-03-14T13:05:22;98731.91;;;4.49;100.00
38718;BME280;24468;52.128;9.278;2023-03-14T13:15:46;98756.06;;;4.64;100.00
38718;BME280;24468;52.128;9.278;2023-03-14T13:18:18;98776.28;;;4.51;100.00
38718;BME280;24468;52.128;9.278;2023-03-14T13:23:34;98780.00;;;4.66;100.00
38718;BME280;24468;52.128;9.278;2023-03-14T13:26:01;98795.88;;;4.88;100.00
38718;BME280;24468;52.128;9.278;2023-03-14T13:28:28;98805.94;;;4.83;100.00
38718;BME280;24468;52.128;9.278;2023-03-14T13:30:59;98798.31;;;4.93;100.00
38718;BME280;24468;52.128;9.278;2023-03-14T13:33:25;98795.75;;;4.91;100.00
38718;BME280;24468;52.128;9.278;2023-03-14T13:36:00;98803.69;;;5.10;100.00
38718;BME280;24468;52.128;9.278;2023-03-14T13:38:30;98809.38;;;5.39;100.00
38718;BME280;24468;52.128;9.278;2023-03-14T13:40:58;98821.25;;;5.16;100.00
38718;BME280;24468;52.128;9.278;2023-03-14T13:43:47;98838.84;;;5.02;100.00
38718;BME280;24468;52.128;9.278;2023-03-14T13:46:17;98846.13;;;4.99;100.00
38718;BME280;24468;52.128;9.278;2023-03-14T13:48:58;98850.47;;;4.82;100.00
38718;BME280;24468;52.128;9.278;2023-03-14T13:51:26;98848.28;;;4.90;100.00
38718;BME280;24468;52.128;9.278;2023-03-14T13:53:56;98850.34;;;5.22;100.00
38718;BME280;24468;52.128;9.278;2023-03-14T13:56:26;98869.91;;;5.05;100.00
38718;BME280;24468;52.128;9.278;2023-03-14T13:58:51;98885.13;;;5.03;100.00
38718;BME280;24468;52.128;9.278;2023-03-14T14:01:30;98911.28;;;4.58;100.00
38718;BME280;24468;52.128;9.278;2023-03-14T14:04:02;98912.63;;;4.09;100.00
38718;BME280;24468;52.128;9.278;2023-03-14T14:06:36;98935.22;;;3.79;100.00